sensor_id;sensor_type;location;lat;lon;timestamp;temperature;humidity
30467;DHT22;17258;52.560;13.046;2023-08-30T00:05:00;20.00;60.60
30467;DHT22;17258;52.560;13.046;2023-08-30T00:15:01;20.00;60.60
30467;DHT22;17258;52.560;13.046;2023-08-30T00:25:02;20.00;60.60
30467;DHT22;17258;52.560;13.046;2023-08-30T00:35:02;19.90;60.50
30467;DHT22;17258;52.560;13.046;2023-08-30T00:45:04;19.90;60.50
30467;DHT22;17258;52.560;13.046;2023-08-30T00:55:05;19.80;60.40
30467;DHT22;17258;52.560;13.046;2023-08-30T01:05:08;19.70;60.40
30467;DHT22;17258;52.560;13.046;2023-08-30T01:15:16;19.70;60.40
30467;DHT22;17258;52.560;13.046;2023-08-30T01:35:52;19.60;61.80
30467;DHT22;17258;52.560;13.046;2023-08-30T01:45:54;19.50;60.80
30467;DHT22;17258;52.560;13.046;2023-08-30T01:55:56;19.50;60.90
30467;DHT22;17258;52.560;13.046;2023-08-30T02:06:02;19.50;61.10
30467;DHT22;17258;52.560;13.046;2023-08-30T02:16:05;19.50;62.00
30467;DHT22;17258;52.560;13.046;2023-08-30T02:26:07;19.50;61.00
30467;DHT22;17258;52.560;13.046;2023-08-30T02:36:07;19.50;61.10
30467;DHT22;17258;52.560;13.046;2023-08-30T02:46:08;19.40;61.20
30467;DHT22;17258;52.560;13.046;2023-08-30T02:56:09;19.40;61.20
30467;DHT22;17258;52.560;13.046;2023-08-30T03:06:11;19.50;61.50
30467;DHT22;17258;52.560;13.046;2023-08-30T03:16:13;19.40;61.50
30467;DHT22;17258;52.560;13.046;2023-08-30T03:26:16;19.50;61.50
30467;DHT22;17258;52.560;13.046;2023-08-30T03:36:17;19.50;61.50
30467;DHT22;17258;52.560;13.046;2023-08-30T03:46:18;19.50;61.30
30467;DHT22;17258;52.560;13.046;2023-08-30T03:56:19;19.40;61.20
30467;DHT22;17258;52.560;13.046;2023-08-30T04:06:19;19.30;61.20
30467;DHT22;17258;52.560;13.046;2023-08-30T04:16:22;19.30;61.10
30467;DHT22;17258;52.560;13.046;2023-08-30T04:26:22;19.20;61.00
30467;DHT22;17258;52.560;13.046;2023-08-30T04:36:23;19.20;61.30
30467;DHT22;17258;52.560;13.046;2023-08-30T04:46:26;19.10;61.50
30467;DHT22;17258;52.560;13.046;2023-08-30T04:56:27;19.10;61.70
30467;DHT22;17258;52.560;13.046;2023-08-30T05:06:29;19.20;62.00
30467;DHT22;17258;52.560;13.046;2023-08-30T05:16:29;19.20;62.10
30467;DHT22;17258;52.560;13.046;2023-08-30T05:26:30;19.30;62.30
30467;DHT22;17258;52.560;13.046;2023-08-30T05:36:31;19.40;62.50
30467;DHT22;17258;52.560;13.046;2023-08-30T05:46:31;19.50;62.60
30467;DHT22;17258;52.560;13.046;2023-08-30T05:56:35;19.70;62.80
30467;DHT22;17258;52.560;13.046;2023-08-30T06:06:36;19.90;63.10
30467;DHT22;17258;52.560;13.046;2023-08-30T06:16:36;20.10;63.00
30467;DHT22;17258;52.560;13.046;2023-08-30T06:26:37;20.20;63.10
30467;DHT22;17258;52.560;13.046;2023-08-30T06:36:38;20.40;63.10
30467;DHT22;17258;52.560;13.046;2023-08-30T06:46:41;20.60;63.20
30467;DHT22;17258;52.560;13.046;2023-08-30T06:56:56;20.80;63.00
30467;DHT22;17258;52.560;13.046;2023-08-30T07:06:57;20.90;63.10
30467;DHT22;17258;52.560;13.046;2023-08-30T07:16:58;21.10;63.00
30467;DHT22;17258;52.560;13.046;2023-08-30T07:26:59;21.20;62.90
30467;DHT22;17258;52.560;13.046;2023-08-30T07:37:00;21.30;62.80
30467;DHT22;17258;52.560;13.046;2023-08-30T07:47:01;21.40;62.90
30467;DHT22;17258;52.560;13.046;2023-08-30T07:57:02;21.50;62.90
30467;DHT22;17258;52.560;13.046;2023-08-30T08:07:06;21.70;62.90
30467;DHT22;17258;52.560;13.046;2023-08-30T08:17:07;21.80;62.80
30467;DHT22;17258;52.560;13.046;2023-08-30T08:27:08;21.90;63.80
30467;DHT22;17258;52.560;13.046;2023-08-30T08:37:09;22.10;62.90
30467;DHT22;17258;52.560;13.046;2023-08-30T08:47:09;22.30;63.80
30467;DHT22;17258;52.560;13.046;2023-08-30T08:57:10;22.50;63.00
30467;DHT22;17258;52.560;13.046;2023-08-30T09:07:11;22.70;62.70
30467;DHT22;17258;52.560;13.046;2023-08-30T09:17:15;23.00;62.70
30467;DHT22;17258;52.560;13.046;2023-08-30T09:27:15;23.30;62.30
30467;DHT22;17258;52.560;13.046;2023-08-30T09:37:22;23.50;62.40
30467;DHT22;17258;52.560;13.046;2023-08-30T09:47:24;23.80;62.10
30467;DHT22;17258;52.560;13.046;2023-08-30T09:57:27;23.90;61.70
30467;DHT22;17258;52.560;13.046;2023-08-30T10:07:32;24.10;61.90
30467;DHT22;17258;52.560;13.046;2023-08-30T10:17:38;24.30;61.20
30467;DHT22;17258;52.560;13.046;2023-08-30T10:27:46;24.50;60.60
30467;DHT22;17258;52.560;13.046;2023-08-30T10:37:56;24.60;60.60
30467;DHT22;17258;52.560;13.046;2023-08-30T10:47:59;24.80;60.40
30467;DHT22;17258;52.560;13.046;2023-08-30T10:58:01;24.90;59.90
30467;DHT22;17258;52.560;13.046;2023-08-30T11:08:03;25.00;59.70
30467;DHT22;17258;52.560;13.046;2023-08-30T11:18:05;25.10;59.70
30467;DHT22;17258;52.560;13.046;2023-08-30T11:28:06;25.30;59.50
30467;DHT22;17258;52.560;13.046;2023-08-30T11:38:10;25.50;59.80
30467;DHT22;17258;52.560;13.046;2023-08-30T11:48:11;25.70;59.50
30467;DHT22;17258;52.560;13.046;2023-08-30T11:58:15;26.00;59.10
30467;DHT22;17258;52.560;13.046;2023-08-30T12:18:32;26.30;57.20
30467;DHT22;17258;52.560;13.046;2023-08-30T12:28:39;26.40;57.70
30467;DHT22;17258;52.560;13.046;2023-08-30T12:38:41;26.50;57.90
30467;DHT22;17258;52.560;13.046;2023-08-30T12:48:41;26.60;57.30
30467;DHT22;17258;52.560;13.046;2023-08-30T12:58:42;26.70;57.20
30467;DHT22;17258;52.560;13.046;2023-08-30T13:08:43;26.80;57.00
30467;DHT22;17258;52.560;13.046;2023-08-30T13:18:43;26.90;57.40
30467;DHT22;17258;52.560;13.046;2023-08-30T13:28:44;27.20;56.90
30467;DHT22;17258;52.560;13.046;2023-08-30T13:38:45;27.50;56.30
30467;DHT22;17258;52.560;13.046;2023-08-30T13:48:46;27.60;56.30
30467;DHT22;17258;52.560;13.046;2023-08-30T13:58:48;27.80;55.90
30467;DHT22;17258;52.560;13.046;2023-08-30T14:08:48;27.90;54.70
30467;DHT22;17258;52.560;13.046;2023-08-30T14:18:52;27.90;54.30
30467;DHT22;17258;52.560;13.046;2023-08-30T14:28:53;27.90;53.90
30467;DHT22;17258;52.560;13.046;2023-08-30T14:38:53;27.90;54.10
30467;DHT22;17258;52.560;13.046;2023-08-30T14:48:54;27.90;54.40
30467;DHT22;17258;52.560;13.046;2023-08-30T14:58:55;27.90;54.10
30467;DHT22;17258;52.560;13.046;2023-08-30T15:08:55;27.90;53.90
30467;DHT22;17258;52.560;13.046;2023-08-30T15:18:56;27.80;54.10
30467;DHT22;17258;52.560;13.046;2023-08-30T15:28:57;27.80;53.60
30467;DHT22;17258;52.560;13.046;2023-08-30T15:38:58;27.80;53.30
30467;DHT22;17258;52.560;13.046;2023-08-30T15:48:58;27.70;53.30
30467;DHT22;17258;52.560;13.046;2023-08-30T15:58:59;27.70;53.60
30467;DHT22;17258;52.560;13.046;2023-08-30T16:09:00;27.70;53.60
30467;DHT22;17258;52.560;13.046;2023-08-30T16:19:02;27.80;53.80
30467;DHT22;17258;52.560;13.046;2023-08-30T16:29:05;27.80;53.50
30467;DHT22;17258;52.560;13.046;2023-08-30T16:39:06;27.90;53.60
30467;DHT22;17258;52.560;13.046;2023-08-30T16:49:07;27.80;53.40
30467;DHT22;17258;52.560;13.046;2023-08-30T16:59:10;27.80;53.20
30467;DHT22;17258;52.560;13.046;2023-08-30T17:09:14;27.60;52.90
30467;DHT22;17258;52.560;13.046;2023-08-30T17:19:15;27.40;52.60
30467;DHT22;17258;52.560;13.046;2023-08-30T17:29:16;27.10;52.70
30467;DHT22;17258;52.560;13.046;2023-08-30T17:39:18;26.70;53.30
30467;DHT22;17258;52.560;13.046;2023-08-30T17:49:18;26.40;52.60
30467;DHT22;17258;52.560;13.046;2023-08-30T17:59:19;26.00;52.70
30467;DHT22;17258;52.560;13.046;2023-08-30T18:09:19;25.60;52.70
30467;DHT22;17258;52.560;13.046;2023-08-30T18:19:20;25.20;52.80
30467;DHT22;17258;52.560;13.046;2023-08-30T18:29:21;24.80;52.90
30467;DHT22;17258;52.560;13.046;2023-08-30T18:39:23;24.40;53.10
30467;DHT22;17258;52.560;13.046;2023-08-30T18:49:24;24.10;53.30
30467;DHT22;17258;52.560;13.046;2023-08-30T18:59:25;23.80;54.20
30467;DHT22;17258;52.560;13.046;2023-08-30T19:09:26;23.40;53.80
30467;DHT22;17258;52.560;13.046;2023-08-30T19:19:31;23.20;54.10
30467;DHT22;17258;52.560;13.046;2023-08-30T19:29:34;22.90;54.30
30467;DHT22;17258;52.560;13.046;2023-08-30T19:39:35;22.70;54.50
30467;DHT22;17258;52.560;13.046;2023-08-30T19:49:35;22.50;54.70
30467;DHT22;17258;52.560;13.046;2023-08-30T19:59:36;22.40;55.00
30467;DHT22;17258;52.560;13.046;2023-08-30T20:09:37;22.20;55.20
30467;DHT22;17258;52.560;13.046;2023-08-30T20:19:38;22.10;55.30
30467;DHT22;17258;52.560;13.046;2023-08-30T20:29:39;22.00;55.50
30467;DHT22;17258;52.560;13.046;2023-08-30T20:39:40;21.90;55.70
30467;DHT22;17258;52.560;13.046;2023-08-30T20:49:40;21.80;55.80
30467;DHT22;17258;52.560;13.046;2023-08-30T20:59:43;21.80;55.90
30467;DHT22;17258;52.560;13.046;2023-08-30T21:09:44;21.70;55.90
30467;DHT22;17258;52.560;13.046;2023-08-30T21:19:44;21.70;56.00
30467;DHT22;17258;52.560;13.046;2023-08-30T21:29:45;21.60;55.90
30467;DHT22;17258;52.560;13.046;2023-08-30T21:39:46;21.50;55.90
30467;DHT22;17258;52.560;13.046;2023-08-30T21:49:48;21.40;56.00
30467;DHT22;17258;52.560;13.046;2023-08-30T21:59:49;21.20;55.90
30467;DHT22;17258;52.560;13.046;2023-08-30T22:09:50;21.10;56.10
30467;DHT22;17258;52.560;13.046;2023-08-30T22:19:50;21.00;56.30
30467;DHT22;17258;52.560;13.046;2023-08-30T22:29:51;20.80;56.40
30467;DHT22;17258;52.560;13.046;2023-08-30T22:39:52;20.70;56.70
30467;DHT22;17258;52.560;13.046;2023-08-30T22:49:53;20.70;56.90
30467;DHT22;17258;52.560;13.046;2023-08-30T22:59:53;20.70;57.00
30467;DHT22;17258;52.560;13.046;2023-08-30T23:09:54;20.70;57.00
30467;DHT22;17258;52.560;13.046;2023-08-30T23:19:57;20.70;57.20
30467;DHT22;17258;52.560;13.046;2023-08-30T23:29:58;20.70;57.40
30467;DHT22;17258;52.560;13.046;2023-08-30T23:39:59;20.70;57.40
30467;DHT22;17258;52.560;13.046;2023-08-30T23:50:00;20.70;57.50
